Time;durP1;ratioP1;P1;durP2;ratioP2;P2;SDS_P1;SDS_P2;PMS_P1;PMS_P2;Temp;Humidity;BMP_temperature;BMP_pressure;BME280_temperature;BME280_humidity;BME280_pressure;Samples;Min_cycle;Max_cycle;Signal;HPM_P1;HPM_P2
2023/01/24 00:01:46;;;;;;;;;;;;;;;;;;5078818;28;19904;-81
2023/01/24 00:04:12;;;;;;;;;;;;;;;;;;5081028;28;19904;-81
2023/01/24 00:06:38;;;;;;;;;;;;;;;;;;5088991;28;19904;-81
2023/01/24 00:09:04;;;;;;;;;;;;;;;;;;5092217;28;19916;-81
2023/01/24 00:11:30;;;;;;;;;;;;;;;;;;5092047;28;19904;-81
2023/01/24 00:13:56;;;;;;;;;;;;;;;;;;5093500;28;19905;-81
2023/01/24 00:16:22;;;;;;;;;;;;;;;;;;5086055;28;19905;-81
2023/01/24 00:18:48;;;;;;;;;;;;;;;;;;5087366;28;19904;-81
2023/01/24 00:21:13;;;;;;;;;;;;;;;;;;5091825;28;19905;-81
2023/01/24 00:23:40;;;;;;;;;;;;;;;;;;5092736;28;19912;-81
2023/01/24 00:26:06;;;;;;;;;;;;;;;;;;5092525;28;19904;-81
2023/01/24 00:28:31;;;;;;;;;;;;;;;;;;5092516;28;19927;-81
2023/01/24 00:30:57;;;;;;;;;;;;;;;;;;5089029;28;19916;-81
2023/01/24 00:33:23;;;;;;;;;;;;;;;;;;5090485;28;19905;-81
2023/01/24 00:35:49;;;;;;;;;;;;;;;;;;5090204;28;19934;-81
2023/01/24 00:38:15;;;;;;;;;;;;;;;;;;5088148;28;19904;-81
2023/01/24 00:40:41;;;;;;;;;;;;;;;;;;5089704;28;19904;-81
2023/01/24 00:43:07;;;;;;;;;;;;;;;;;;5089710;28;19979;-81
2023/01/24 00:45:33;;;;;;;;;;;;;;;;;;5089355;28;19904;-81
2023/01/24 00:47:59;;;;;;;;;;;;;;;;;;5089467;28;19904;-81
2023/01/24 00:50:25;;;;;;;;;;;;;;;;;;5089404;28;19912;-81
2023/01/24 00:52:51;;;;;;;;;;;;;;;;;;5088678;28;19905;-81
2023/01/24 00:55:17;;;;;;;;;;;;;;;;;;5088757;28;19904;-81
2023/01/24 00:57:42;;;;;;;;;;;;;;;;;;5087029;28;19935;-81
2023/01/24 01:00:08;;;;;;;;;;;;;;;;;;5086433;28;19926;-81
2023/01/24 01:02:34;;;;;;;;;;;;;;;;;;5087834;28;19915;-81
2023/01/24 01:05:00;;;;;;;;;;;;;;;;;;5087949;28;19905;-81
2023/01/24 01:07:26;;;;;;;;;;;;;;;;;;5087779;28;19946;-81
2023/01/24 01:09:52;;;;;;;;;;;;;;;;;;5087741;28;19912;-81
2023/01/24 01:12:18;;;;;;;;;;;;;;;;;;5087148;28;20281;-81
2023/01/24 01:14:44;;;;;;;;;;;;;;;;;;5087141;28;19915;-81
2023/01/24 01:17:10;;;;;;;;;;;;;;;;;;5086034;28;20003;-81
2023/01/24 01:19:36;;;;;;;;;;;;;;;;;;5086737;28;19904;-81
2023/01/24 01:22:01;;;;;;;;;;;;;;;;;;5086151;28;19904;-81
2023/01/24 01:24:28;;;;;;;;;;;;;;;;;;5085455;28;19905;-81
2023/01/24 01:26:54;;;;;;;;;;;;;;;;;;5084431;28;19932;-81
2023/01/24 01:29:20;;;;;;;;;;;;;;;;;;5085835;28;19912;-81
2023/01/24 01:31:46;;;;;;;;;;;;;;;;;;5086283;28;19986;-81
2023/01/24 01:34:13;;;;;;;;;;;;;;;;;;5085938;28;19927;-81
2023/01/24 01:36:39;;;;;;;;;;;;;;;;;;5085516;28;19931;-81
2023/01/24 01:39:05;;;;;;;;;;;;;;;;;;5084756;28;19904;-81
2023/01/24 01:41:31;;;;;;;;;;;;;;;;;;5085345;28;19908;-81
2023/01/24 01:46:41;;;;;;;;;;;;;;;;;;5084535;28;19953;-81
2023/01/24 01:49:07;;;;;;;;;;;;;;;;;;5083693;28;19916;-81
2023/01/24 01:51:33;;;;;;;;;;;;;;;;;;5084553;28;19919;-81
2023/01/24 01:53:59;;;;;;;;;;;;;;;;;;5082199;28;19911;-81
2023/01/24 01:56:25;;;;;;;;;;;;;;;;;;5083868;28;20002;-81
2023/01/24 01:58:51;;;;;;;;;;;;;;;;;;5083588;28;19911;-81
2023/01/24 02:01:16;;;;;;;;;;;;;;;;;;5083102;28;20354;-81
2023/01/24 02:03:42;;;;;;;;;;;;;;;;;;5083587;28;19953;-81
2023/01/24 02:06:08;;;;;;;;;;;;;;;;;;5083882;28;20308;-81
2023/01/24 02:08:40;;;;;;;;;;;;;;;;;;5082594;28;19928;-81
2023/01/24 02:16:01;;;;;;;;;;;;;;;;;;5082805;28;19918;-81
2023/01/24 02:16:38;;;;;;;;;;;;;;;;;;5082481;28;19904;-81
2023/01/24 02:19:04;;;;;;;;;;;;;;;;;;5082409;28;19908;-81
2023/01/24 02:21:30;;;;;;;;;;;;;;;;;;5081835;28;19904;-81
2023/01/24 02:23:55;;;;;;;;;;;;;;;;;;5080471;28;19904;-82
2023/01/24 02:26:21;;;;;;;;;;;;;;;;;;5077721;28;19904;-82
2023/01/24 02:28:47;;;;;;;;;;;;;;;;;;5076520;28;19913;-82
2023/01/24 02:31:13;;;;;;;;;;;;;;;;;;5081451;28;19987;-82
2023/01/24 02:33:39;;;;;;;;;;;;;;;;;;5081003;28;19904;-82
2023/01/24 02:36:05;;;;;;;;;;;;;;;;;;5081074;28;20312;-82
2023/01/24 02:38:31;;;;;;;;;;;;;;;;;;5079773;28;19951;-82
2023/01/24 02:41:01;;;;;;;;;;;;;;;;;;5081102;28;19905;-82
2023/01/24 02:43:27;;;;;;;;;;;;;;;;;;5081364;28;19904;-82
2023/01/24 02:45:53;;;;;;;;;;;;;;;;;;5080965;28;19908;-82
2023/01/24 02:48:19;;;;;;;;;;;;;;;;;;5081598;28;19912;-82
2023/01/24 02:53:30;;;;;;;;;;;;;;;;;;5081468;28;19950;-82
2023/01/24 02:58:48;;;;;;;;;;;;;;;;;;5081044;28;19929;-82
2023/01/24 03:01:14;;;;;;;;;;;;;;;;;;5080830;28;20379;-82
2023/01/24 03:03:40;;;;;;;;;;;;;;;;;;5081282;28;19912;-82
2023/01/24 03:06:06;;;;;;;;;;;;;;;;;;5081605;28;20042;-82
2023/01/24 03:08:32;;;;;;;;;;;;;;;;;;5080956;28;19919;-82
2023/01/24 03:10:58;;;;;;;;;;;;;;;;;;5081459;28;19904;-82
2023/01/24 03:35:22;;;;;;;;;;;;;;;;;;5081187;28;19942;-82
2023/01/24 03:40:32;;;;;;;;;;;;;;;;;;5079656;28;19926;-82
2023/01/24 03:42:58;;;;;;;;;;;;;;;;;;5080039;28;19999;-82
2023/01/24 03:45:24;;;;;;;;;;;;;;;;;;5079669;28;19916;-82
2023/01/24 03:47:55;;;;;;;;;;;;;;;;;;5080215;28;19958;-82
2023/01/24 03:53:06;;;;;;;;;;;;;;;;;;5079932;28;19931;-82
2023/01/24 03:55:32;;;;;;;;;;;;;;;;;;5080033;28;19908;-82
2023/01/24 03:57:58;;;;;;;;;;;;;;;;;;5079078;28;19959;-82
2023/01/24 04:00:24;;;;;;;;;;;;;;;;;;5080208;28;19951;-82
2023/01/24 04:02:49;;;;;;;;;;;;;;;;;;5079396;28;19904;-82
2023/01/24 04:05:15;;;;;;;;;;;;;;;;;;5078621;28;19995;-82
2023/01/24 04:07:41;;;;;;;;;;;;;;;;;;5078159;28;19930;-82
2023/01/24 04:10:07;;;;;;;;;;;;;;;;;;5076460;28;19965;-82
2023/01/24 04:12:33;;;;;;;;;;;;;;;;;;5077929;28;19909;-82
2023/01/24 04:15:11;;;;;;;;;;;;;;;;;;5078051;28;19911;-82
2023/01/24 04:17:37;;;;;;;;;;;;;;;;;;5078490;28;19905;-82
2023/01/24 04:20:03;;;;;;;;;;;;;;;;;;5079859;28;19911;-82
2023/01/24 04:22:29;;;;;;;;;;;;;;;;;;5078445;28;19905;-82
2023/01/24 04:24:55;;;;;;;;;;;;;;;;;;5078001;28;19908;-82
2023/01/24 04:27:21;;;;;;;;;;;;;;;;;;5076650;28;20063;-82
2023/01/24 04:29:47;;;;;;;;;;;;;;;;;;5079228;28;19908;-82
2023/01/24 04:32:13;;;;;;;;;;;;;;;;;;5079018;28;19977;-82
2023/01/24 04:34:39;;;;;;;;;;;;;;;;;;5077316;28;19904;-82
2023/01/24 04:37:05;;;;;;;;;;;;;;;;;;5080788;28;19965;-82
2023/01/24 04:39:31;;;;;;;;;;;;;;;;;;5084067;28;19936;-82
2023/01/24 04:41:57;;;;;;;;;;;;;;;;;;5086818;28;19967;-82
2023/01/24 04:44:23;;;;;;;;;;;;;;;;;;5083363;28;20402;-82
2023/01/24 04:46:49;;;;;;;;;;;;;;;;;;5081122;28;19948;-82
2023/01/24 04:49:15;;;;;;;;;;;;;;;;;;5080915;28;19916;-82
2023/01/24 04:51:43;;;;;;;;;;;;;;;;;;5080856;28;20007;-82
2023/01/24 04:54:09;;;;;;;;;;;;;;;;;;5082200;28;19905;-82
2023/01/24 04:56:35;;;;;;;;;;;;;;;;;;5081796;28;20265;-82
2023/01/24 04:59:07;;;;;;;;;;;;;;;;;;5080992;28;20269;-82
2023/01/24 05:01:33;;;;;;;;;;;;;;;;;;5080842;28;19904;-82
2023/01/24 05:03:59;;;;;;;;;;;;;;;;;;5080498;28;19987;-83
2023/01/24 05:06:25;;;;;;;;;;;;;;;;;;5080325;28;19908;-82
2023/01/24 05:08:51;;;;;;;;;;;;;;;;;;5080485;28;19912;-82
2023/01/24 05:11:17;;;;;;;;;;;;;;;;;;5079544;28;19905;-82
2023/01/24 05:13:43;;;;;;;;;;;;;;;;;;5080972;28;19904;-82
2023/01/24 05:16:09;;;;;;;;;;;;;;;;;;5085539;28;19931;-82
2023/01/24 05:18:35;;;;;;;;;;;;;;;;;;5078224;28;19915;-82
2023/01/24 05:21:00;;;;;;;;;;;;;;;;;;5083621;28;19964;-82
2023/01/24 05:23:26;;;;;;;;;;;;;;;;;;5078110;28;19912;-82
2023/01/24 05:25:52;;;;;;;;;;;;;;;;;;5078056;28;19935;-83
2023/01/24 05:28:18;;;;;;;;;;;;;;;;;;5073984;28;19905;-83
2023/01/24 05:30:44;;;;;;;;;;;;;;;;;;5064050;28;19952;-83
2023/01/24 05:33:10;;;;;;;;;;;;;;;;;;5075362;28;19920;-83
2023/01/24 05:35:36;;;;;;;;;;;;;;;;;;5068290;28;19964;-83
2023/01/24 05:38:02;;;;;;;;;;;;;;;;;;5067585;28;20346;-83
2023/01/24 05:40:28;;;;;;;;;;;;;;;;;;5074690;28;20371;-83
2023/01/24 05:42:53;;;;;;;;;;;;;;;;;;5068072;28;19909;-83
2023/01/24 05:45:19;;;;;;;;;;;;;;;;;;5070913;28;19911;-83
2023/01/24 05:47:45;;;;;;;;;;;;;;;;;;5051846;28;19908;-83
2023/01/24 05:50:11;;;;;;;;;;;;;;;;;;5068733;28;19920;-83
2023/01/24 05:52:37;;;;;;;;;;;;;;;;;;5059466;28;20301;-83
2023/01/24 05:55:03;;;;;;;;;;;;;;;;;;5057348;28;19909;-83
2023/01/24 05:57:30;;;;;;;;;;;;;;;;;;5070622;28;19904;-83
2023/01/24 05:59:55;;;;;;;;;;;;;;;;;;5057728;28;19908;-83
2023/01/24 06:02:21;;;;;;;;;;;;;;;;;;5074657;28;20301;-83
2023/01/24 06:04:48;;;;;;;;;;;;;;;;;;5073755;28;19904;-83
2023/01/24 06:07:13;;;;;;;;;;;;;;;;;;5074263;28;19904;-83
2023/01/24 06:09:39;;;;;;;;;;;;;;;;;;5074071;28;20328;-83
2023/01/24 06:12:05;;;;;;;;;;;;;;;;;;5074151;28;19947;-83
2023/01/24 06:14:31;;;;;;;;;;;;;;;;;;5074140;28;20385;-83
2023/01/24 06:17:05;;;;;;;;;;;;;;;;;;5073975;28;19904;-83
2023/01/24 06:30:39;;;;;;;;;;;;;;;;;;5073933;28;20377;-83
2023/01/24 06:33:04;;;;;;;;;;;;;;;;;;5073637;28;20320;-83
2023/01/24 06:35:30;;;;;;;;;;;;;;;;;;5073834;28;19912;-83
2023/01/24 06:37:58;;;;;;;;;;;;;;;;;;5073808;28;19905;-83
2023/01/24 06:40:24;;;;;;;;;;;;;;;;;;5074310;28;20257;-83
2023/01/24 06:42:50;;;;;;;;;;;;;;;;;;5073847;28;19973;-82
2023/01/24 06:45:16;;;;;;;;;;;;;;;;;;5073743;28;20316;-82
2023/01/24 06:47:42;;;;;;;;;;;;;;;;;;5073892;28;19904;-82
2023/01/24 06:50:08;;;;;;;;;;;;;;;;;;5074209;28;19912;-82
2023/01/24 06:52:34;;;;;;;;;;;;;;;;;;5073780;28;19905;-82
2023/01/24 06:55:00;;;;;;;;;;;;;;;;;;5073726;28;19909;-83
2023/01/24 06:57:26;;;;;;;;;;;;;;;;;;5073569;28;20341;-83
2023/01/24 06:59:51;;;;;;;;;;;;;;;;;;5055817;28;19919;-83
2023/01/24 07:05:16;;;;;;;;;;;;;;;;;;5073751;28;19983;-83
2023/01/24 07:07:42;;;;;;;;;;;;;;;;;;5053690;28;19909;-83
2023/01/24 07:10:08;;;;;;;;;;;;;;;;;;5053455;28;19913;-83
2023/01/24 07:12:34;;;;;;;;;;;;;;;;;;5035665;28;19904;-83
2023/01/24 07:14:59;;;;;;;;;;;;;;;;;;5054862;28;20046;-83
2023/01/24 07:17:25;;;;;;;;;;;;;;;;;;5039360;28;20050;-83
2023/01/24 07:19:51;;;;;;;;;;;;;;;;;;5057396;28;19912;-83
2023/01/24 07:22:17;;;;;;;;;;;;;;;;;;5057027;28;19977;-83
2023/01/24 07:24:44;;;;;;;;;;;;;;;;;;5057031;28;19940;-83
2023/01/24 07:27:10;;;;;;;;;;;;;;;;;;5039122;28;19912;-82
2023/01/24 07:29:36;;;;;;;;;;;;;;;;;;5056743;28;19913;-83
2023/01/24 07:32:02;;;;;;;;;;;;;;;;;;5056613;28;19967;-83
2023/01/24 07:34:28;;;;;;;;;;;;;;;;;;5057110;28;19911;-83
2023/01/24 07:36:54;;;;;;;;;;;;;;;;;;5056770;28;19931;-83
2023/01/24 07:39:20;;;;;;;;;;;;;;;;;;5056715;28;19958;-83
2023/01/24 07:41:45;;;;;;;;;;;;;;;;;;5056734;28;19909;-83
2023/01/24 07:49:35;;;;;;;;;;;;;;;;;;5057027;28;19916;-83
2023/01/24 07:52:01;;;;;;;;;;;;;;;;;;5056383;28;19912;-83
2023/01/24 07:54:27;;;;;;;;;;;;;;;;;;5072227;28;20003;-83
2023/01/24 07:56:53;;;;;;;;;;;;;;;;;;5075415;28;19908;-83
2023/01/24 07:59:19;;;;;;;;;;;;;;;;;;5076350;28;19911;-83
2023/01/24 08:01:44;;;;;;;;;;;;;;;;;;5076438;28;20372;-83
2023/01/24 08:04:10;;;;;;;;;;;;;;;;;;5077251;28;19994;-83
2023/01/24 08:06:36;;;;;;;;;;;;;;;;;;5075897;28;19931;-83
2023/01/24 08:09:02;;;;;;;;;;;;;;;;;;5076491;28;20120;-83
2023/01/24 08:11:28;;;;;;;;;;;;;;;;;;5047269;28;19911;-83
2023/01/24 08:13:54;;;;;;;;;;;;;;;;;;5049191;28;20601;-83
2023/01/24 08:16:23;;;;;;;;;;;;;;;;;;5064776;28;19913;-83
2023/01/24 08:18:49;;;;;;;;;;;;;;;;;;5068117;28;19911;-83
2023/01/24 08:21:15;;;;;;;;;;;;;;;;;;5065194;28;19908;-83
2023/01/24 08:23:41;;;;;;;;;;;;;;;;;;5066555;28;19904;-83
2023/01/24 08:26:21;;;;;;;;;;;;;;;;;;5065771;28;19939;-83
2023/01/24 08:31:25;;;;;;;;;;;;;;;;;;5063557;28;19908;-83
2023/01/24 08:33:51;;;;;;;;;;;;;;;;;;5063737;28;19966;-83
2023/01/24 08:36:19;;;;;;;;;;;;;;;;;;5066038;28;19912;-83
2023/01/24 08:38:45;;;;;;;;;;;;;;;;;;5063795;28;19904;-83
2023/01/24 08:41:10;;;;;;;;;;;;;;;;;;5065070;28;19996;-83
2023/01/24 08:43:36;;;;;;;;;;;;;;;;;;5064337;28;20350;-83
2023/01/24 08:46:02;;;;;;;;;;;;;;;;;;5064100;28;19905;-83
2023/01/24 08:48:28;;;;;;;;;;;;;;;;;;5065756;28;20035;-83
2023/01/24 08:50:54;;;;;;;;;;;;;;;;;;5065295;28;19912;-83
2023/01/24 08:53:20;;;;;;;;;;;;;;;;;;5064510;28;20270;-83
2023/01/24 08:55:46;;;;;;;;;;;;;;;;;;5046669;28;19908;-82
2023/01/24 08:58:12;;;;;;;;;;;;;;;;;;5047699;28;19905;-82
2023/01/24 09:00:37;;;;;;;;;;;;;;;;;;5069145;28;19904;-83
2023/01/24 09:03:03;;;;;;;;;;;;;;;;;;5069693;28;19929;-83
2023/01/24 09:05:29;;;;;;;;;;;;;;;;;;5071963;28;19912;-83
2023/01/24 09:07:55;;;;;;;;;;;;;;;;;;5068527;28;19916;-83
2023/01/24 09:10:21;;;;;;;;;;;;;;;;;;5065553;28;19919;-83
2023/01/24 09:15:18;;;;;;;;;;;;;;;;;;5070744;28;19905;-81
2023/01/24 09:17:44;;;;;;;;;;;;;;;;;;5076296;28;19904;-82
2023/01/24 09:20:10;;;;;;;;;;;;;;;;;;5059296;28;19904;-82
2023/01/24 09:22:36;;;;;;;;;;;;;;;;;;5077753;28;19916;-82
2023/01/24 09:25:03;;;;;;;;;;;;;;;;;;5075223;28;19912;-82
2023/01/24 09:27:29;;;;;;;;;;;;;;;;;;5076232;28;19960;-83
2023/01/24 09:29:55;;;;;;;;;;;;;;;;;;5075046;28;19951;-83
2023/01/24 09:32:21;;;;;;;;;;;;;;;;;;5074509;28;19916;-83
2023/01/24 09:34:47;;;;;;;;;;;;;;;;;;5074818;28;19904;-83
2023/01/24 09:37:13;;;;;;;;;;;;;;;;;;5056695;28;20373;-83
2023/01/24 09:39:39;;;;;;;;;;;;;;;;;;5074875;28;19905;-83
2023/01/24 09:42:05;;;;;;;;;;;;;;;;;;5074802;28;19908;-83
2023/01/24 09:44:31;;;;;;;;;;;;;;;;;;5074767;28;19950;-83
2023/01/24 09:46:57;;;;;;;;;;;;;;;;;;5074335;28;19928;-83
2023/01/24 09:49:23;;;;;;;;;;;;;;;;;;5074604;28;19935;-83
2023/01/24 09:51:49;;;;;;;;;;;;;;;;;;5056653;28;20519;-83
2023/01/24 10:00:01;;;;;;;;;;;;;;;;;;5074545;28;19911;-83
2023/01/24 10:02:27;;;;;;;;;;;;;;;;;;5074578;28;19904;-83
2023/01/24 10:04:53;;;;;;;;;;;;;;;;;;5056714;28;19960;-83
2023/01/24 10:07:19;;;;;;;;;;;;;;;;;;5077020;28;19927;-83
2023/01/24 10:09:45;;;;;;;;;;;;;;;;;;5079358;28;19919;-83
2023/01/24 10:12:11;;;;;;;;;;;;;;;;;;5080050;28;19911;-83
2023/01/24 10:14:37;;;;;;;;;;;;;;;;;;5074436;28;19908;-83
2023/01/24 10:17:03;;;;;;;;;;;;;;;;;;5075914;28;19931;-83
2023/01/24 10:19:28;;;;;;;;;;;;;;;;;;5075627;28;19991;-82
2023/01/24 10:21:54;;;;;;;;;;;;;;;;;;5075552;28;19904;-82
2023/01/24 10:24:20;;;;;;;;;;;;;;;;;;5074581;28;20337;-82
2023/01/24 10:26:46;;;;;;;;;;;;;;;;;;5073743;28;19935;-82
2023/01/24 10:29:12;;;;;;;;;;;;;;;;;;5074373;28;19913;-82
2023/01/24 10:31:38;;;;;;;;;;;;;;;;;;5074614;28;20045;-82
2023/01/24 10:34:04;;;;;;;;;;;;;;;;;;5074582;28;19904;-82
2023/01/24 10:36:30;;;;;;;;;;;;;;;;;;5055984;28;19911;-82
2023/01/24 10:41:41;;;;;;;;;;;;;;;;;;5074154;28;19911;-82
2023/01/24 10:44:07;;;;;;;;;;;;;;;;;;5078834;28;19904;-83
2023/01/24 10:46:33;;;;;;;;;;;;;;;;;;5058753;28;20367;-83
2023/01/24 10:48:59;;;;;;;;;;;;;;;;;;5076474;28;19912;-83
2023/01/24 10:51:24;;;;;;;;;;;;;;;;;;5063102;28;19908;-83
2023/01/24 10:53:50;;;;;;;;;;;;;;;;;;5062540;28;19904;-83
2023/01/24 10:56:16;;;;;;;;;;;;;;;;;;5080745;28;19953;-83
2023/01/24 10:58:42;;;;;;;;;;;;;;;;;;5081601;28;19916;-83
2023/01/24 11:01:08;;;;;;;;;;;;;;;;;;5061194;28;19911;-83
2023/01/24 11:03:34;;;;;;;;;;;;;;;;;;5080201;28;19985;-83
2023/01/24 11:06:00;;;;;;;;;;;;;;;;;;5080564;28;19904;-83
2023/01/24 11:08:26;;;;;;;;;;;;;;;;;;5056477;28;20042;-83
2023/01/24 11:10:53;;;;;;;;;;;;;;;;;;5071497;28;19916;-83
2023/01/24 11:13:19;;;;;;;;;;;;;;;;;;5052359;28;19912;-83
2023/01/24 11:15:45;;;;;;;;;;;;;;;;;;5066934;28;19905;-83
2023/01/24 11:18:10;;;;;;;;;;;;;;;;;;5055445;28;19950;-82
2023/01/24 11:20:36;;;;;;;;;;;;;;;;;;5081084;28;19935;-82
2023/01/24 11:23:04;;;;;;;;;;;;;;;;;;5075454;28;19995;-82
2023/01/24 11:25:30;;;;;;;;;;;;;;;;;;5068108;28;19915;-82
2023/01/24 11:27:56;;;;;;;;;;;;;;;;;;5072700;28;19908;-82
2023/01/24 11:30:22;;;;;;;;;;;;;;;;;;5070581;28;19912;-82
2023/01/24 11:32:48;;;;;;;;;;;;;;;;;;5050254;28;20297;-82
2023/01/24 11:35:14;;;;;;;;;;;;;;;;;;5048514;28;20382;-82
2023/01/24 11:37:40;;;;;;;;;;;;;;;;;;5047651;28;19911;-82
2023/01/24 11:40:06;;;;;;;;;;;;;;;;;;5048101;28;19919;-82
2023/01/24 11:42:31;;;;;;;;;;;;;;;;;;5043594;28;20007;-83
2023/01/24 11:44:57;;;;;;;;;;;;;;;;;;5041555;28;19912;-83
2023/01/24 11:47:23;;;;;;;;;;;;;;;;;;5038520;28;19951;-82
2023/01/24 11:49:49;;;;;;;;;;;;;;;;;;5041550;28;19913;-82
2023/01/24 11:52:16;;;;;;;;;;;;;;;;;;5049457;28;19909;-82
2023/01/24 11:54:42;;;;;;;;;;;;;;;;;;5067621;28;19905;-82
2023/01/24 11:57:08;;;;;;;;;;;;;;;;;;5061818;28;19909;-82
2023/01/24 11:59:34;;;;;;;;;;;;;;;;;;5065201;28;19904;-83
2023/01/24 12:02:00;;;;;;;;;;;;;;;;;;5061283;28;20382;-82
2023/01/24 12:04:27;;;;;;;;;;;;;;;;;;5067300;28;19976;-82
2023/01/24 12:06:53;;;;;;;;;;;;;;;;;;5063602;28;19905;-82
2023/01/24 12:09:19;;;;;;;;;;;;;;;;;;5044122;28;19923;-81
2023/01/24 12:11:45;;;;;;;;;;;;;;;;;;5057445;28;19912;-81
2023/01/24 12:14:11;;;;;;;;;;;;;;;;;;5057448;28;19905;-81
2023/01/24 12:16:42;;;;;;;;;;;;;;;;;;5060048;28;20366;-81
2023/01/24 12:19:08;;;;;;;;;;;;;;;;;;5061219;28;19911;-81
2023/01/24 12:21:34;;;;;;;;;;;;;;;;;;5060600;28;19972;-82
2023/01/24 12:24:00;;;;;;;;;;;;;;;;;;5050157;28;20363;-81
2023/01/24 12:26:26;;;;;;;;;;;;;;;;;;5059787;28;19904;-81
2023/01/24 12:28:52;;;;;;;;;;;;;;;;;;5060362;28;19936;-81
2023/01/24 12:31:18;;;;;;;;;;;;;;;;;;5058899;28;20262;-81
2023/01/24 12:33:44;;;;;;;;;;;;;;;;;;5080159;28;19962;-82
2023/01/24 12:36:09;;;;;;;;;;;;;;;;;;5077994;28;19970;-80
2023/01/24 12:38:35;;;;;;;;;;;;;;;;;;5067055;28;19905;-81
2023/01/24 12:41:01;;;;;;;;;;;;;;;;;;5057091;28;19908;-80
2023/01/24 12:43:27;;;;;;;;;;;;;;;;;;5057933;28;19909;-80
2023/01/24 12:45:55;;;;;;;;;;;;;;;;;;5058712;28;20415;-80
2023/01/24 12:48:28;;;;;;;;;;;;;;;;;;5076773;28;19930;-80
2023/01/24 12:50:54;;;;;;;;;;;;;;;;;;5076838;28;19913;-79
2023/01/24 12:53:20;;;;;;;;;;;;;;;;;;5076882;28;19904;-80
2023/01/24 12:55:47;;;;;;;;;;;;;;;;;;5076812;28;19912;-80
2023/01/24 12:58:13;;;;;;;;;;;;;;;;;;5077991;28;19904;-80
2023/01/24 13:00:39;;;;;;;;;;;;;;;;;;5060511;28;19971;-81
2023/01/24 13:03:05;;;;;;;;;;;;;;;;;;5080764;28;19905;-81
2023/01/24 13:05:31;;;;;;;;;;;;;;;;;;5080608;28;19904;-81
2023/01/24 13:07:57;;;;;;;;;;;;;;;;;;5080095;28;19953;-81
2023/01/24 13:10:23;;;;;;;;;;;;;;;;;;5080444;28;20331;-81
2023/01/24 13:12:48;;;;;;;;;;;;;;;;;;5084396;28;19939;-81
2023/01/24 13:15:14;;;;;;;;;;;;;;;;;;5082799;28;19911;-81
2023/01/24 13:17:40;;;;;;;;;;;;;;;;;;5084312;28;19904;-81
2023/01/24 13:20:06;;;;;;;;;;;;;;;;;;5083524;28;19912;-81
2023/01/24 13:22:32;;;;;;;;;;;;;;;;;;5083649;28;19928;-81
2023/01/24 13:24:58;;;;;;;;;;;;;;;;;;5085225;28;19911;-81
2023/01/24 13:27:24;;;;;;;;;;;;;;;;;;5082521;28;20016;-81
2023/01/24 13:29:49;;;;;;;;;;;;;;;;;;5078098;28;19913;-81
2023/01/24 13:32:15;;;;;;;;;;;;;;;;;;5076317;28;20294;-81
2023/01/24 13:34:41;;;;;;;;;;;;;;;;;;5076333;28;19911;-81
2023/01/24 13:37:07;;;;;;;;;;;;;;;;;;5077564;28;20357;-81
2023/01/24 13:39:35;;;;;;;;;;;;;;;;;;5078095;28;19975;-81
2023/01/24 13:42:01;;;;;;;;;;;;;;;;;;5079522;28;19904;-81
2023/01/24 13:44:27;;;;;;;;;;;;;;;;;;5075336;28;19934;-81
2023/01/24 13:46:52;;;;;;;;;;;;;;;;;;5078169;28;19927;-81
2023/01/24 13:49:18;;;;;;;;;;;;;;;;;;5077128;28;19959;-81
2023/01/24 13:51:45;;;;;;;;;;;;;;;;;;5060415;28;19920;-81
2023/01/24 13:54:11;;;;;;;;;;;;;;;;;;5081550;28;19966;-81
2023/01/24 13:56:37;;;;;;;;;;;;;;;;;;5082920;28;19928;-81
2023/01/24 13:59:03;;;;;;;;;;;;;;;;;;5066546;28;19926;-81
2023/01/24 14:01:29;;;;;;;;;;;;;;;;;;5083328;28;19915;-81
2023/01/24 14:03:55;;;;;;;;;;;;;;;;;;5081598;28;19905;-81
2023/01/24 14:06:21;;;;;;;;;;;;;;;;;;5086104;28;19904;-81
2023/01/24 14:08:47;;;;;;;;;;;;;;;;;;5065587;28;19915;-81
2023/01/24 14:11:12;;;;;;;;;;;;;;;;;;5065999;28;19940;-81
2023/01/24 14:13:42;;;;;;;;;;;;;;;;;;5069240;28;20344;-81
2023/01/24 14:16:08;;;;;;;;;;;;;;;;;;5072565;28;19904;-81
2023/01/24 14:18:34;;;;;;;;;;;;;;;;;;5069491;28;19913;-81
2023/01/24 14:21:00;;;;;;;;;;;;;;;;;;5071833;28;19905;-81
2023/01/24 14:23:26;;;;;;;;;;;;;;;;;;5067462;28;19909;-80
2023/01/24 14:25:52;;;;;;;;;;;;;;;;;;5065843;28;19911;-81
2023/01/24 14:28:18;;;;;;;;;;;;;;;;;;5068077;28;19904;-81
2023/01/24 14:30:44;;;;;;;;;;;;;;;;;;5070466;28;20250;-80
2023/01/24 14:33:10;;;;;;;;;;;;;;;;;;5076014;28;19941;-80
2023/01/24 14:35:36;;;;;;;;;;;;;;;;;;5075104;28;19979;-81
2023/01/24 14:38:02;;;;;;;;;;;;;;;;;;5077044;28;19928;-81
2023/01/24 14:40:31;;;;;;;;;;;;;;;;;;5063805;28;20011;-81
2023/01/24 14:42:57;;;;;;;;;;;;;;;;;;5066809;28;19908;-81
2023/01/24 14:45:22;;;;;;;;;;;;;;;;;;5067823;28;19904;-80
2023/01/24 14:47:48;;;;;;;;;;;;;;;;;;5068106;28;19967;-81
2023/01/24 14:50:14;;;;;;;;;;;;;;;;;;5065128;28;19912;-81
2023/01/24 14:52:40;;;;;;;;;;;;;;;;;;5065484;28;19913;-80
2023/01/24 14:55:06;;;;;;;;;;;;;;;;;;5055874;28;19939;-80
2023/01/24 15:00:03;;;;;;;;;;;;;;;;;;5075165;28;19911;-80
2023/01/24 15:02:29;;;;;;;;;;;;;;;;;;5075356;28;19907;-81
2023/01/24 15:04:55;;;;;;;;;;;;;;;;;;5056539;28;19905;-81
2023/01/24 15:07:21;;;;;;;;;;;;;;;;;;5074536;28;19901;-80
2023/01/24 15:09:47;;;;;;;;;;;;;;;;;;5055753;28;20006;-80
2023/01/24 15:12:13;;;;;;;;;;;;;;;;;;5048670;28;19997;-80
2023/01/24 15:14:40;;;;;;;;;;;;;;;;;;5054094;28;20257;-80
2023/01/24 15:17:06;;;;;;;;;;;;;;;;;;5054638;28;20307;-81
2023/01/24 15:19:32;;;;;;;;;;;;;;;;;;5054812;28;20368;-80
2023/01/24 15:21:58;;;;;;;;;;;;;;;;;;5054759;28;19904;-80
2023/01/24 15:24:24;;;;;;;;;;;;;;;;;;5053725;28;19905;-80
2023/01/24 15:26:50;;;;;;;;;;;;;;;;;;5036786;28;19958;-80
2023/01/24 15:29:15;;;;;;;;;;;;;;;;;;5054300;28;19920;-80
2023/01/24 15:31:41;;;;;;;;;;;;;;;;;;5054104;28;19912;-80
2023/01/24 15:34:07;;;;;;;;;;;;;;;;;;5036446;28;19966;-80
2023/01/24 15:36:33;;;;;;;;;;;;;;;;;;5056297;28;19905;-80
2023/01/24 15:49:53;;;;;;;;;;;;;;;;;;5057802;28;19919;-80
2023/01/24 15:52:19;;;;;;;;;;;;;;;;;;5057730;28;19905;-80
2023/01/24 15:54:45;;;;;;;;;;;;;;;;;;5057702;28;20262;-80
2023/01/24 15:57:11;;;;;;;;;;;;;;;;;;5057396;28;20319;-80
2023/01/24 15:59:37;;;;;;;;;;;;;;;;;;5057508;28;19916;-80
2023/01/24 16:02:03;;;;;;;;;;;;;;;;;;5059586;28;19987;-81
2023/01/24 16:04:29;;;;;;;;;;;;;;;;;;5079158;28;19911;-79
2023/01/24 16:06:55;;;;;;;;;;;;;;;;;;5059806;28;19909;-80
2023/01/24 16:09:21;;;;;;;;;;;;;;;;;;5078141;28;20354;-80
2023/01/24 16:11:48;;;;;;;;;;;;;;;;;;5077549;28;19915;-80
2023/01/24 16:14:14;;;;;;;;;;;;;;;;;;5077913;28;19908;-80
2023/01/24 16:16:40;;;;;;;;;;;;;;;;;;5078360;28;19957;-80
2023/01/24 16:19:05;;;;;;;;;;;;;;;;;;5078400;28;20357;-80
2023/01/24 16:21:34;;;;;;;;;;;;;;;;;;5078240;28;19904;-80
2023/01/24 16:24:09;;;;;;;;;;;;;;;;;;5077868;28;19908;-80
2023/01/24 16:26:35;;;;;;;;;;;;;;;;;;5077789;28;19920;-80
2023/01/24 16:29:01;;;;;;;;;;;;;;;;;;5077814;28;20003;-80
2023/01/24 16:31:27;;;;;;;;;;;;;;;;;;5078272;28;19905;-80
2023/01/24 16:33:52;;;;;;;;;;;;;;;;;;5056432;28;19940;-80
2023/01/24 16:36:18;;;;;;;;;;;;;;;;;;5057716;28;19988;-79
2023/01/24 16:38:44;;;;;;;;;;;;;;;;;;5057085;28;20277;-80
2023/01/24 16:41:10;;;;;;;;;;;;;;;;;;5057041;28;19963;-80
2023/01/24 16:43:36;;;;;;;;;;;;;;;;;;5056899;28;19905;-80
2023/01/24 16:46:02;;;;;;;;;;;;;;;;;;5056894;28;19905;-80
2023/01/24 16:48:28;;;;;;;;;;;;;;;;;;5056276;28;20336;-80
2023/01/24 16:50:54;;;;;;;;;;;;;;;;;;5056747;28;19931;-80
2023/01/24 16:53:19;;;;;;;;;;;;;;;;;;5055055;28;19911;-80
2023/01/24 16:55:45;;;;;;;;;;;;;;;;;;5046132;28;20266;-80
2023/01/24 16:58:12;;;;;;;;;;;;;;;;;;5054655;28;19958;-80
2023/01/24 17:00:38;;;;;;;;;;;;;;;;;;5057703;28;19905;-80
2023/01/24 17:03:04;;;;;;;;;;;;;;;;;;5059227;28;20508;-80
2023/01/24 17:08:03;;;;;;;;;;;;;;;;;;5061089;28;19920;-80
2023/01/24 17:10:30;;;;;;;;;;;;;;;;;;5059836;28;19916;-80
2023/01/24 17:12:56;;;;;;;;;;;;;;;;;;5045257;28;19915;-80
2023/01/24 17:15:22;;;;;;;;;;;;;;;;;;5056745;28;19936;-80
2023/01/24 17:17:48;;;;;;;;;;;;;;;;;;5056415;28;20358;-80
2023/01/24 17:20:14;;;;;;;;;;;;;;;;;;5056089;28;19939;-80
2023/01/24 17:22:39;;;;;;;;;;;;;;;;;;5056017;28;19904;-80
2023/01/24 17:25:05;;;;;;;;;;;;;;;;;;5055651;28;19905;-80
2023/01/24 17:27:31;;;;;;;;;;;;;;;;;;5055252;28;19904;-80
2023/01/24 17:29:57;;;;;;;;;;;;;;;;;;5055024;28;20302;-80
2023/01/24 17:35:21;;;;;;;;;;;;;;;;;;5019480;28;19975;-80
2023/01/24 17:37:48;;;;;;;;;;;;;;;;;;5024643;28;19909;-80
2023/01/24 17:40:14;;;;;;;;;;;;;;;;;;5035371;28;19905;-80
2023/01/24 17:42:43;;;;;;;;;;;;;;;;;;5024215;28;19917;-80
2023/01/24 17:45:09;;;;;;;;;;;;;;;;;;5015339;28;19996;-80
2023/01/24 17:47:35;;;;;;;;;;;;;;;;;;5020497;28;19940;-80
2023/01/24 17:50:02;;;;;;;;;;;;;;;;;;5034279;28;19952;-80
2023/01/24 17:52:28;;;;;;;;;;;;;;;;;;5034881;28;20623;-80
2023/01/24 17:54:53;;;;;;;;;;;;;;;;;;5034394;28;19988;-80
2023/01/24 17:57:19;;;;;;;;;;;;;;;;;;5018749;28;19999;-79
2023/01/24 17:59:45;;;;;;;;;;;;;;;;;;5030619;28;20311;-80
2023/01/24 18:02:11;;;;;;;;;;;;;;;;;;5030237;28;19905;-80
2023/01/24 18:04:37;;;;;;;;;;;;;;;;;;5028351;28;19959;-80
2023/01/24 18:07:03;;;;;;;;;;;;;;;;;;5035051;28;19909;-80
2023/01/24 18:09:29;;;;;;;;;;;;;;;;;;5030523;28;19963;-80